sensor_id;sensor_type;location;lat;lon;timestamp;P1;durP1;ratioP1;P2;durP2;ratioP2
17741;SDS011;8993;51.822;-2.268;2024-02-14T00:01:07;21.51;;;3.63;;
17741;SDS011;8993;51.822;-2.268;2024-02-14T00:06:10;19.37;;;3.38;;
17741;SDS011;8993;51.822;-2.268;2024-02-14T00:11:14;18.83;;;2.87;;
17741;SDS011;8993;51.822;-2.268;2024-02-14T00:16:17;21.04;;;3.17;;
17741;SDS011;8993;51.822;-2.268;2024-02-14T00:21:21;19.38;;;3.15;;
17741;SDS011;8993;51.822;-2.268;2024-02-14T00:26:25;20.03;;;3.01;;
17741;SDS011;8993;51.822;-2.268;2024-02-14T00:31:28;20.35;;;3.14;;
17741;SDS011;8993;51.822;-2.268;2024-02-14T00:36:32;23.22;;;3.49;;
17741;SDS011;8993;51.822;-2.268;2024-02-14T00:41:35;20.13;;;3.13;;
17741;SDS011;8993;51.822;-2.268;2024-02-14T00:46:39;22.10;;;3.44;;
17741;SDS011;8993;51.822;-2.268;2024-02-14T00:51:43;25.57;;;3.48;;
17741;SDS011;8993;51.822;-2.268;2024-02-14T00:56:46;22.89;;;3.88;;
17741;SDS011;8993;51.822;-2.268;2024-02-14T01:01:50;25.40;;;3.80;;
17741;SDS011;8993;51.822;-2.268;2024-02-14T01:06:53;25.10;;;3.86;;
17741;SDS011;8993;51.822;-2.268;2024-02-14T01:11:58;23.62;;;3.53;;
17741;SDS011;8993;51.822;-2.268;2024-02-14T01:17:01;26.63;;;3.55;;
17741;SDS011;8993;51.822;-2.268;2024-02-14T01:22:04;23.35;;;3.48;;
17741;SDS011;8993;51.822;-2.268;2024-02-14T01:27:08;23.75;;;3.21;;
17741;SDS011;8993;51.822;-2.268;2024-02-14T01:32:12;22.73;;;3.16;;
17741;SDS011;8993;51.822;-2.268;2024-02-14T01:37:15;21.24;;;3.13;;
17741;SDS011;8993;51.822;-2.268;2024-02-14T01:42:19;19.50;;;3.00;;
17741;SDS011;8993;51.822;-2.268;2024-02-14T01:47:22;21.97;;;2.92;;
17741;SDS011;8993;51.822;-2.268;2024-02-14T01:52:26;20.57;;;3.01;;
17741;SDS011;8993;51.822;-2.268;2024-02-14T01:57:29;17.25;;;2.77;;
17741;SDS011;8993;51.822;-2.268;2024-02-14T02:02:33;16.04;;;2.49;;
17741;SDS011;8993;51.822;-2.268;2024-02-14T02:07:37;16.57;;;2.51;;
17741;SDS011;8993;51.822;-2.268;2024-02-14T02:12:41;15.48;;;2.36;;
17741;SDS011;8993;51.822;-2.268;2024-02-14T02:17:44;17.43;;;2.81;;
17741;SDS011;8993;51.822;-2.268;2024-02-14T02:22:48;14.49;;;2.61;;
17741;SDS011;8993;51.822;-2.268;2024-02-14T02:27:51;14.89;;;2.33;;
17741;SDS011;8993;51.822;-2.268;2024-02-14T02:32:55;16.12;;;2.62;;
17741;SDS011;8993;51.822;-2.268;2024-02-14T02:37:58;14.81;;;2.28;;
17741;SDS011;8993;51.822;-2.268;2024-02-14T02:43:02;14.19;;;2.19;;
17741;SDS011;8993;51.822;-2.268;2024-02-14T02:48:06;14.65;;;2.11;;
17741;SDS011;8993;51.822;-2.268;2024-02-14T02:53:09;14.28;;;2.07;;
17741;SDS011;8993;51.822;-2.268;2024-02-14T02:58:12;15.49;;;2.96;;
17741;SDS011;8993;51.822;-2.268;2024-02-14T03:03:16;16.21;;;2.63;;
17741;SDS011;8993;51.822;-2.268;2024-02-14T03:08:20;13.76;;;2.29;;
17741;SDS011;8993;51.822;-2.268;2024-02-14T03:13:23;13.55;;;2.09;;
17741;SDS011;8993;51.822;-2.268;2024-02-14T03:18:27;15.92;;;2.56;;
17741;SDS011;8993;51.822;-2.268;2024-02-14T03:23:30;12.05;;;1.88;;
17741;SDS011;8993;51.822;-2.268;2024-02-14T03:28:34;12.46;;;1.60;;
17741;SDS011;8993;51.822;-2.268;2024-02-14T03:33:38;12.77;;;1.71;;
17741;SDS011;8993;51.822;-2.268;2024-02-14T03:38:41;11.38;;;1.44;;
17741;SDS011;8993;51.822;-2.268;2024-02-14T03:43:45;12.26;;;1.71;;
17741;SDS011;8993;51.822;-2.268;2024-02-14T03:48:48;12.29;;;1.69;;
17741;SDS011;8993;51.822;-2.268;2024-02-14T03:53:52;11.47;;;1.65;;
17741;SDS011;8993;51.822;-2.268;2024-02-14T03:58:55;13.05;;;1.91;;
17741;SDS011;8993;51.822;-2.268;2024-02-14T04:03:59;13.22;;;1.71;;
17741;SDS011;8993;51.822;-2.268;2024-02-14T04:09:03;13.79;;;1.88;;
17741;SDS011;8993;51.822;-2.268;2024-02-14T04:14:06;13.44;;;1.72;;
17741;SDS011;8993;51.822;-2.268;2024-02-14T04:19:10;13.46;;;1.73;;
17741;SDS011;8993;51.822;-2.268;2024-02-14T04:24:13;10.67;;;1.59;;
17741;SDS011;8993;51.822;-2.268;2024-02-14T04:29:17;11.57;;;1.57;;
17741;SDS011;8993;51.822;-2.268;2024-02-14T04:34:20;12.16;;;1.61;;
17741;SDS011;8993;51.822;-2.268;2024-02-14T04:39:24;10.90;;;1.32;;
17741;SDS011;8993;51.822;-2.268;2024-02-14T04:44:28;10.66;;;1.41;;
17741;SDS011;8993;51.822;-2.268;2024-02-14T04:49:31;12.37;;;1.57;;
17741;SDS011;8993;51.822;-2.268;2024-02-14T04:54:35;11.06;;;1.48;;
17741;SDS011;8993;51.822;-2.268;2024-02-14T04:59:38;10.58;;;1.59;;
17741;SDS011;8993;51.822;-2.268;2024-02-14T05:04:43;11.36;;;1.65;;
17741;SDS011;8993;51.822;-2.268;2024-02-14T05:09:45;12.38;;;1.68;;
17741;SDS011;8993;51.822;-2.268;2024-02-14T05:14:49;11.80;;;1.75;;
17741;SDS011;8993;51.822;-2.268;2024-02-14T05:19:52;12.14;;;1.62;;
17741;SDS011;8993;51.822;-2.268;2024-02-14T05:24:56;10.93;;;1.67;;
17741;SDS011;8993;51.822;-2.268;2024-02-14T05:30:00;12.83;;;1.83;;
17741;SDS011;8993;51.822;-2.268;2024-02-14T05:35:04;9.86;;;1.53;;
17741;SDS011;8993;51.822;-2.268;2024-02-14T05:40:07;13.92;;;1.94;;
17741;SDS011;8993;51.822;-2.268;2024-02-14T05:45:10;13.97;;;1.88;;
17741;SDS011;8993;51.822;-2.268;2024-02-14T05:50:14;12.12;;;1.71;;
17741;SDS011;8993;51.822;-2.268;2024-02-14T05:55:18;12.53;;;1.89;;
17741;SDS011;8993;51.822;-2.268;2024-02-14T06:00:21;11.68;;;1.65;;
17741;SDS011;8993;51.822;-2.268;2024-02-14T06:05:25;12.35;;;1.85;;
17741;SDS011;8993;51.822;-2.268;2024-02-14T06:10:28;12.21;;;1.91;;
17741;SDS011;8993;51.822;-2.268;2024-02-14T06:15:32;11.44;;;1.46;;
17741;SDS011;8993;51.822;-2.268;2024-02-14T06:20:36;9.66;;;1.61;;
17741;SDS011;8993;51.822;-2.268;2024-02-14T06:25:39;8.48;;;1.28;;
17741;SDS011;8993;51.822;-2.268;2024-02-14T06:30:43;9.02;;;1.35;;
17741;SDS011;8993;51.822;-2.268;2024-02-14T06:35:46;8.42;;;1.19;;
17741;SDS011;8993;51.822;-2.268;2024-02-14T06:40:49;8.16;;;1.37;;
17741;SDS011;8993;51.822;-2.268;2024-02-14T06:45:53;6.54;;;1.25;;
17741;SDS011;8993;51.822;-2.268;2024-02-14T06:50:57;7.61;;;1.16;;
17741;SDS011;8993;51.822;-2.268;2024-02-14T06:56:00;6.37;;;1.00;;
17741;SDS011;8993;51.822;-2.268;2024-02-14T07:01:04;7.68;;;1.22;;
17741;SDS011;8993;51.822;-2.268;2024-02-14T07:06:08;7.05;;;1.06;;
17741;SDS011;8993;51.822;-2.268;2024-02-14T07:11:11;6.40;;;1.16;;
17741;SDS011;8993;51.822;-2.268;2024-02-14T07:16:15;7.41;;;1.27;;
17741;SDS011;8993;51.822;-2.268;2024-02-14T07:21:18;6.84;;;1.16;;
17741;SDS011;8993;51.822;-2.268;2024-02-14T07:26:22;7.09;;;1.34;;
17741;SDS011;8993;51.822;-2.268;2024-02-14T07:31:28;7.37;;;1.19;;
17741;SDS011;8993;51.822;-2.268;2024-02-14T07:36:29;6.68;;;1.18;;
17741;SDS011;8993;51.822;-2.268;2024-02-14T07:41:33;6.43;;;1.15;;
17741;SDS011;8993;51.822;-2.268;2024-02-14T07:46:36;6.29;;;1.12;;
17741;SDS011;8993;51.822;-2.268;2024-02-14T07:51:40;6.22;;;1.14;;
17741;SDS011;8993;51.822;-2.268;2024-02-14T07:56:43;6.61;;;1.05;;
17741;SDS011;8993;51.822;-2.268;2024-02-14T08:01:47;5.80;;;1.08;;
17741;SDS011;8993;51.822;-2.268;2024-02-14T08:06:50;6.03;;;1.12;;
17741;SDS011;8993;51.822;-2.268;2024-02-14T08:11:54;7.75;;;1.47;;
17741;SDS011;8993;51.822;-2.268;2024-02-14T08:16:57;7.14;;;1.37;;
17741;SDS011;8993;51.822;-2.268;2024-02-14T08:22:01;8.45;;;1.37;;
17741;SDS011;8993;51.822;-2.268;2024-02-14T08:27:05;7.95;;;1.38;;
17741;SDS011;8993;51.822;-2.268;2024-02-14T08:32:08;7.61;;;1.31;;
17741;SDS011;8993;51.822;-2.268;2024-02-14T08:37:12;7.61;;;1.31;;
17741;SDS011;8993;51.822;-2.268;2024-02-14T08:42:15;7.29;;;0.98;;
17741;SDS011;8993;51.822;-2.268;2024-02-14T08:47:19;5.07;;;0.82;;
17741;SDS011;8993;51.822;-2.268;2024-02-14T08:52:22;6.09;;;1.05;;
17741;SDS011;8993;51.822;-2.268;2024-02-14T08:57:26;4.64;;;0.78;;
17741;SDS011;8993;51.822;-2.268;2024-02-14T09:02:30;4.30;;;0.77;;
17741;SDS011;8993;51.822;-2.268;2024-02-14T09:07:33;3.95;;;0.74;;
17741;SDS011;8993;51.822;-2.268;2024-02-14T09:12:37;4.86;;;0.90;;
17741;SDS011;8993;51.822;-2.268;2024-02-14T09:17:40;3.91;;;0.76;;
17741;SDS011;8993;51.822;-2.268;2024-02-14T09:22:44;5.23;;;0.86;;
17741;SDS011;8993;51.822;-2.268;2024-02-14T09:27:47;6.36;;;1.33;;
17741;SDS011;8993;51.822;-2.268;2024-02-14T09:32:51;8.18;;;1.92;;
17741;SDS011;8993;51.822;-2.268;2024-02-14T09:37:55;8.92;;;2.01;;
17741;SDS011;8993;51.822;-2.268;2024-02-14T09:42:58;8.50;;;1.32;;
17741;SDS011;8993;51.822;-2.268;2024-02-14T09:48:02;7.61;;;1.33;;
17741;SDS011;8993;51.822;-2.268;2024-02-14T09:53:06;7.36;;;1.59;;
17741;SDS011;8993;51.822;-2.268;2024-02-14T09:58:09;6.88;;;1.25;;
17741;SDS011;8993;51.822;-2.268;2024-02-14T10:03:13;7.23;;;1.47;;
17741;SDS011;8993;51.822;-2.268;2024-02-14T10:08:16;4.97;;;1.02;;
17741;SDS011;8993;51.822;-2.268;2024-02-14T10:13:20;6.48;;;1.52;;
17741;SDS011;8993;51.822;-2.268;2024-02-14T10:18:24;4.43;;;0.98;;
17741;SDS011;8993;51.822;-2.268;2024-02-14T10:23:27;5.88;;;1.08;;
17741;SDS011;8993;51.822;-2.268;2024-02-14T10:28:32;6.17;;;1.44;;
17741;SDS011;8993;51.822;-2.268;2024-02-14T10:33:34;6.91;;;1.39;;
17741;SDS011;8993;51.822;-2.268;2024-02-14T10:38:38;7.53;;;1.51;;
17741;SDS011;8993;51.822;-2.268;2024-02-14T10:43:42;10.96;;;2.07;;
17741;SDS011;8993;51.822;-2.268;2024-02-14T10:48:45;8.98;;;2.11;;
17741;SDS011;8993;51.822;-2.268;2024-02-14T10:53:49;8.97;;;2.21;;
17741;SDS011;8993;51.822;-2.268;2024-02-14T10:58:52;11.55;;;2.78;;
17741;SDS011;8993;51.822;-2.268;2024-02-14T11:03:56;14.60;;;3.17;;
17741;SDS011;8993;51.822;-2.268;2024-02-14T11:09:00;14.61;;;2.67;;
17741;SDS011;8993;51.822;-2.268;2024-02-14T11:14:03;15.01;;;3.15;;
17741;SDS011;8993;51.822;-2.268;2024-02-14T11:19:07;15.12;;;3.24;;
17741;SDS011;8993;51.822;-2.268;2024-02-14T11:24:10;15.14;;;3.37;;
17741;SDS011;8993;51.822;-2.268;2024-02-14T11:29:14;16.21;;;3.28;;
17741;SDS011;8993;51.822;-2.268;2024-02-14T11:34:17;17.95;;;3.14;;
17741;SDS011;8993;51.822;-2.268;2024-02-14T11:39:21;13.84;;;2.82;;
17741;SDS011;8993;51.822;-2.268;2024-02-14T11:44:24;13.60;;;2.50;;
17741;SDS011;8993;51.822;-2.268;2024-02-14T11:49:28;12.06;;;2.15;;
17741;SDS011;8993;51.822;-2.268;2024-02-14T11:54:31;9.89;;;1.61;;
17741;SDS011;8993;51.822;-2.268;2024-02-14T11:59:35;12.38;;;1.97;;
17741;SDS011;8993;51.822;-2.268;2024-02-14T12:04:39;11.26;;;2.02;;
17741;SDS011;8993;51.822;-2.268;2024-02-14T12:09:42;13.35;;;2.21;;
17741;SDS011;8993;51.822;-2.268;2024-02-14T12:14:46;12.37;;;1.99;;
17741;SDS011;8993;51.822;-2.268;2024-02-14T12:19:49;12.20;;;2.21;;
17741;SDS011;8993;51.822;-2.268;2024-02-14T12:24:55;14.12;;;2.21;;
17741;SDS011;8993;51.822;-2.268;2024-02-14T12:29:57;13.28;;;2.32;;
17741;SDS011;8993;51.822;-2.268;2024-02-14T12:35:00;11.95;;;1.97;;
17741;SDS011;8993;51.822;-2.268;2024-02-14T12:40:04;13.76;;;1.78;;
17741;SDS011;8993;51.822;-2.268;2024-02-14T12:45:08;14.74;;;2.01;;
17741;SDS011;8993;51.822;-2.268;2024-02-14T12:50:11;11.39;;;1.93;;
17741;SDS011;8993;51.822;-2.268;2024-02-14T12:55:14;14.07;;;1.97;;
17741;SDS011;8993;51.822;-2.268;2024-02-14T13:00:18;14.19;;;2.22;;
17741;SDS011;8993;51.822;-2.268;2024-02-14T13:05:22;15.24;;;2.56;;
17741;SDS011;8993;51.822;-2.268;2024-02-14T13:10:25;13.29;;;2.34;;
17741;SDS011;8993;51.822;-2.268;2024-02-14T13:15:29;13.10;;;2.46;;
17741;SDS011;8993;51.822;-2.268;2024-02-14T13:20:32;13.76;;;1.96;;
17741;SDS011;8993;51.822;-2.268;2024-02-14T13:25:36;12.64;;;2.21;;
17741;SDS011;8993;51.822;-2.268;2024-02-14T13:30:40;12.63;;;2.25;;
17741;SDS011;8993;51.822;-2.268;2024-02-14T13:35:43;14.47;;;2.63;;
17741;SDS011;8993;51.822;-2.268;2024-02-14T13:40:47;15.34;;;2.36;;
17741;SDS011;8993;51.822;-2.268;2024-02-14T13:45:50;13.58;;;2.30;;
17741;SDS011;8993;51.822;-2.268;2024-02-14T13:50:54;17.15;;;2.83;;
17741;SDS011;8993;51.822;-2.268;2024-02-14T13:55:57;15.99;;;2.71;;
17741;SDS011;8993;51.822;-2.268;2024-02-14T14:01:01;14.17;;;2.74;;
17741;SDS011;8993;51.822;-2.268;2024-02-14T14:06:05;15.30;;;2.47;;
17741;SDS011;8993;51.822;-2.268;2024-02-14T14:11:08;14.74;;;2.51;;
17741;SDS011;8993;51.822;-2.268;2024-02-14T14:16:12;15.00;;;2.59;;
17741;SDS011;8993;51.822;-2.268;2024-02-14T14:21:15;13.60;;;2.24;;
17741;SDS011;8993;51.822;-2.268;2024-02-14T14:26:19;12.70;;;2.04;;
17741;SDS011;8993;51.822;-2.268;2024-02-14T14:31:23;13.71;;;2.37;;
17741;SDS011;8993;51.822;-2.268;2024-02-14T14:36:26;13.08;;;2.39;;
17741;SDS011;8993;51.822;-2.268;2024-02-14T14:41:30;14.17;;;2.77;;
17741;SDS011;8993;51.822;-2.268;2024-02-14T14:46:33;15.88;;;2.65;;
17741;SDS011;8993;51.822;-2.268;2024-02-14T14:51:37;14.55;;;2.70;;
17741;SDS011;8993;51.822;-2.268;2024-02-14T14:56:40;14.94;;;3.31;;
17741;SDS011;8993;51.822;-2.268;2024-02-14T15:01:44;14.43;;;2.66;;
17741;SDS011;8993;51.822;-2.268;2024-02-14T15:06:48;15.50;;;2.69;;
17741;SDS011;8993;51.822;-2.268;2024-02-14T15:11:51;14.55;;;3.11;;
17741;SDS011;8993;51.822;-2.268;2024-02-14T15:16:55;15.65;;;2.74;;
17741;SDS011;8993;51.822;-2.268;2024-02-14T15:22:01;13.42;;;2.80;;
17741;SDS011;8993;51.822;-2.268;2024-02-14T15:27:10;14.83;;;2.75;;
17741;SDS011;8993;51.822;-2.268;2024-02-14T15:32:13;11.60;;;2.42;;
17741;SDS011;8993;51.822;-2.268;2024-02-14T15:37:17;8.80;;;1.65;;
17741;SDS011;8993;51.822;-2.268;2024-02-14T15:42:20;9.49;;;1.80;;
17741;SDS011;8993;51.822;-2.268;2024-02-14T15:47:24;9.16;;;1.86;;
17741;SDS011;8993;51.822;-2.268;2024-02-14T15:52:27;7.54;;;1.97;;
17741;SDS011;8993;51.822;-2.268;2024-02-14T15:57:31;7.59;;;1.78;;
17741;SDS011;8993;51.822;-2.268;2024-02-14T16:02:34;8.11;;;2.02;;
17741;SDS011;8993;51.822;-2.268;2024-02-14T16:07:38;7.41;;;2.18;;
17741;SDS011;8993;51.822;-2.268;2024-02-14T16:12:42;7.42;;;2.22;;
17741;SDS011;8993;51.822;-2.268;2024-02-14T16:17:45;7.24;;;2.12;;
17741;SDS011;8993;51.822;-2.268;2024-02-14T16:22:49;7.68;;;2.54;;
17741;SDS011;8993;51.822;-2.268;2024-02-14T16:27:52;7.11;;;2.04;;
17741;SDS011;8993;51.822;-2.268;2024-02-14T16:32:56;8.16;;;2.80;;
17741;SDS011;8993;51.822;-2.268;2024-02-14T16:37:59;10.17;;;3.42;;
17741;SDS011;8993;51.822;-2.268;2024-02-14T16:43:03;11.23;;;4.39;;
17741;SDS011;8993;51.822;-2.268;2024-02-14T16:48:07;10.39;;;2.97;;
17741;SDS011;8993;51.822;-2.268;2024-02-14T16:53:10;11.61;;;3.66;;
17741;SDS011;8993;51.822;-2.268;2024-02-14T16:58:14;10.34;;;3.05;;
17741;SDS011;8993;51.822;-2.268;2024-02-14T17:03:18;10.25;;;3.30;;
17741;SDS011;8993;51.822;-2.268;2024-02-14T17:08:22;11.86;;;3.84;;
17741;SDS011;8993;51.822;-2.268;2024-02-14T17:13:25;12.44;;;4.77;;
17741;SDS011;8993;51.822;-2.268;2024-02-14T17:18:29;14.42;;;5.16;;
17741;SDS011;8993;51.822;-2.268;2024-02-14T17:23:32;14.13;;;4.91;;
17741;SDS011;8993;51.822;-2.268;2024-02-14T17:28:36;15.58;;;4.73;;
17741;SDS011;8993;51.822;-2.268;2024-02-14T17:33:39;16.02;;;3.52;;
17741;SDS011;8993;51.822;-2.268;2024-02-14T17:38:43;12.87;;;3.09;;
17741;SDS011;8993;51.822;-2.268;2024-02-14T17:43:46;13.44;;;3.34;;
17741;SDS011;8993;51.822;-2.268;2024-02-14T17:48:50;14.80;;;3.09;;
17741;SDS011;8993;51.822;-2.268;2024-02-14T17:53:54;11.58;;;3.10;;
17741;SDS011;8993;51.822;-2.268;2024-02-14T17:58:57;11.47;;;2.58;;
17741;SDS011;8993;51.822;-2.268;2024-02-14T18:04:01;11.93;;;2.34;;
17741;SDS011;8993;51.822;-2.268;2024-02-14T18:09:04;11.63;;;2.04;;
17741;SDS011;8993;51.822;-2.268;2024-02-14T18:14:08;9.66;;;1.79;;
17741;SDS011;8993;51.822;-2.268;2024-02-14T18:19:11;10.53;;;1.93;;
17741;SDS011;8993;51.822;-2.268;2024-02-14T18:24:15;10.77;;;1.88;;
17741;SDS011;8993;51.822;-2.268;2024-02-14T18:29:19;10.62;;;1.71;;
17741;SDS011;8993;51.822;-2.268;2024-02-14T18:34:22;9.65;;;1.84;;
17741;SDS011;8993;51.822;-2.268;2024-02-14T18:39:26;8.54;;;1.91;;
17741;SDS011;8993;51.822;-2.268;2024-02-14T18:44:29;8.86;;;2.02;;
17741;SDS011;8993;51.822;-2.268;2024-02-14T18:49:33;9.56;;;1.84;;
17741;SDS011;8993;51.822;-2.268;2024-02-14T18:54:36;9.86;;;1.81;;
17741;SDS011;8993;51.822;-2.268;2024-02-14T18:59:40;8.38;;;1.53;;
17741;SDS011;8993;51.822;-2.268;2024-02-14T19:04:44;7.42;;;1.36;;
17741;SDS011;8993;51.822;-2.268;2024-02-14T19:09:47;7.18;;;1.27;;
17741;SDS011;8993;51.822;-2.268;2024-02-14T19:14:51;8.83;;;1.50;;
17741;SDS011;8993;51.822;-2.268;2024-02-14T19:19:54;8.42;;;1.42;;
17741;SDS011;8993;51.822;-2.268;2024-02-14T19:24:58;8.87;;;1.48;;
17741;SDS011;8993;51.822;-2.268;2024-02-14T19:30:02;8.63;;;1.66;;
17741;SDS011;8993;51.822;-2.268;2024-02-14T19:35:05;7.67;;;1.60;;
17741;SDS011;8993;51.822;-2.268;2024-02-14T19:40:09;7.87;;;1.44;;
17741;SDS011;8993;51.822;-2.268;2024-02-14T19:45:12;7.73;;;1.51;;
17741;SDS011;8993;51.822;-2.268;2024-02-14T19:50:16;9.58;;;1.84;;
17741;SDS011;8993;51.822;-2.268;2024-02-14T19:55:19;8.54;;;1.85;;
17741;SDS011;8993;51.822;-2.268;2024-02-14T20:00:23;9.72;;;2.06;;
17741;SDS011;8993;51.822;-2.268;2024-02-14T20:05:26;8.67;;;1.99;;
17741;SDS011;8993;51.822;-2.268;2024-02-14T20:10:31;8.42;;;2.12;;
17741;SDS011;8993;51.822;-2.268;2024-02-14T20:15:34;8.71;;;2.17;;
17741;SDS011;8993;51.822;-2.268;2024-02-14T20:20:38;8.95;;;2.29;;
17741;SDS011;8993;51.822;-2.268;2024-02-14T20:25:41;13.37;;;2.66;;
17741;SDS011;8993;51.822;-2.268;2024-02-14T20:30:45;11.06;;;2.97;;
17741;SDS011;8993;51.822;-2.268;2024-02-14T20:35:48;13.19;;;3.91;;
17741;SDS011;8993;51.822;-2.268;2024-02-14T20:40:52;13.16;;;3.48;;
17741;SDS011;8993;51.822;-2.268;2024-02-14T20:45:55;12.21;;;3.45;;
17741;SDS011;8993;51.822;-2.268;2024-02-14T20:50:59;12.46;;;2.91;;
17741;SDS011;8993;51.822;-2.268;2024-02-14T20:56:03;10.12;;;3.01;;
17741;SDS011;8993;51.822;-2.268;2024-02-14T21:01:06;11.51;;;3.11;;
17741;SDS011;8993;51.822;-2.268;2024-02-14T21:06:10;11.61;;;3.25;;
17741;SDS011;8993;51.822;-2.268;2024-02-14T21:11:14;10.53;;;3.33;;
17741;SDS011;8993;51.822;-2.268;2024-02-14T21:16:17;12.23;;;3.27;;
17741;SDS011;8993;51.822;-2.268;2024-02-14T21:21:21;10.72;;;3.56;;
17741;SDS011;8993;51.822;-2.268;2024-02-14T21:26:24;11.58;;;3.36;;
17741;SDS011;8993;51.822;-2.268;2024-02-14T21:31:29;9.63;;;3.16;;
17741;SDS011;8993;51.822;-2.268;2024-02-14T21:36:31;9.21;;;3.01;;
17741;SDS011;8993;51.822;-2.268;2024-02-14T21:41:35;7.83;;;2.53;;
17741;SDS011;8993;51.822;-2.268;2024-02-14T21:46:38;8.35;;;2.40;;
17741;SDS011;8993;51.822;-2.268;2024-02-14T21:51:42;8.60;;;2.25;;
17741;SDS011;8993;51.822;-2.268;2024-02-14T21:56:46;7.66;;;2.19;;
17741;SDS011;8993;51.822;-2.268;2024-02-14T22:01:49;7.29;;;1.97;;
17741;SDS011;8993;51.822;-2.268;2024-02-14T22:06:53;6.56;;;1.88;;
17741;SDS011;8993;51.822;-2.268;2024-02-14T22:11:56;7.31;;;2.20;;
17741;SDS011;8993;51.822;-2.268;2024-02-14T22:17:00;6.88;;;2.15;;
17741;SDS011;8993;51.822;-2.268;2024-02-14T22:22:03;6.76;;;2.19;;
17741;SDS011;8993;51.822;-2.268;2024-02-14T22:27:07;6.92;;;2.29;;
17741;SDS011;8993;51.822;-2.268;2024-02-14T22:32:11;6.95;;;2.28;;
17741;SDS011;8993;51.822;-2.268;2024-02-14T22:37:14;7.96;;;2.45;;
17741;SDS011;8993;51.822;-2.268;2024-02-14T22:42:18;8.21;;;2.56;;
17741;SDS011;8993;51.822;-2.268;2024-02-14T22:47:21;7.18;;;2.25;;
17741;SDS011;8993;51.822;-2.268;2024-02-14T22:52:25;7.76;;;2.39;;
17741;SDS011;8993;51.822;-2.268;2024-02-14T22:57:28;7.85;;;2.36;;
17741;SDS011;8993;51.822;-2.268;2024-02-14T23:02:32;6.96;;;2.38;;
17741;SDS011;8993;51.822;-2.268;2024-02-14T23:07:35;7.07;;;2.50;;
17741;SDS011;8993;51.822;-2.268;2024-02-14T23:12:39;6.88;;;2.41;;
17741;SDS011;8993;51.822;-2.268;2024-02-14T23:17:43;7.78;;;2.52;;
17741;SDS011;8993;51.822;-2.268;2024-02-14T23:22:46;6.95;;;2.44;;
17741;SDS011;8993;51.822;-2.268;2024-02-14T23:27:50;7.86;;;2.13;;
17741;SDS011;8993;51.822;-2.268;2024-02-14T23:32:53;6.91;;;2.00;;
17741;SDS011;8993;51.822;-2.268;2024-02-14T23:37:57;6.40;;;1.71;;
17741;SDS011;8993;51.822;-2.268;2024-02-14T23:43:00;6.09;;;1.53;;
17741;SDS011;8993;51.822;-2.268;2024-02-14T23:48:04;5.42;;;1.44;;
17741;SDS011;8993;51.822;-2.268;2024-02-14T23:53:07;6.12;;;1.56;;
17741;SDS011;8993;51.822;-2.268;2024-02-14T23:58:11;6.50;;;1.69;;
